sensor_id;sensor_type;location;lat;lon;timestamp;P1;durP1;ratioP1;P2;durP2;ratioP2
9767;SDS011;4923;52.520;13.494;2022-08-25T00:00:18;12.50;;;7.93;;
9767;SDS011;4923;52.520;13.494;2022-08-25T00:03:06;10.23;;;6.60;;
9767;SDS011;4923;52.520;13.494;2022-08-25T00:05:53;8.97;;;6.97;;
9767;SDS011;4923;52.520;13.494;2022-08-25T00:08:41;8.07;;;7.30;;
9767;SDS011;4923;52.520;13.494;2022-08-25T00:11:29;7.80;;;7.07;;
9767;SDS011;4923;52.520;13.494;2022-08-25T00:14:20;6.80;;;6.20;;
9767;SDS011;4923;52.520;13.494;2022-08-25T00:17:08;14.53;;;7.80;;
9767;SDS011;4923;52.520;13.494;2022-08-25T00:19:57;7.87;;;7.00;;
9767;SDS011;4923;52.520;13.494;2022-08-25T00:22:44;8.97;;;7.00;;
9767;SDS011;4923;52.520;13.494;2022-08-25T00:25:30;6.93;;;5.60;;
9767;SDS011;4923;52.520;13.494;2022-08-25T00:28:17;8.87;;;6.60;;
9767;SDS011;4923;52.520;13.494;2022-08-25T00:31:04;16.17;;;7.43;;
9767;SDS011;4923;52.520;13.494;2022-08-25T00:33:55;13.73;;;7.63;;
9767;SDS011;4923;52.520;13.494;2022-08-25T00:36:44;8.60;;;7.70;;
9767;SDS011;4923;52.520;13.494;2022-08-25T00:39:32;9.93;;;7.50;;
9767;SDS011;4923;52.520;13.494;2022-08-25T00:42:19;21.77;;;8.37;;
9767;SDS011;4923;52.520;13.494;2022-08-25T00:45:07;10.63;;;6.77;;
9767;SDS011;4923;52.520;13.494;2022-08-25T00:47:54;10.13;;;7.90;;
9767;SDS011;4923;52.520;13.494;2022-08-25T00:50:41;11.90;;;7.53;;
9767;SDS011;4923;52.520;13.494;2022-08-25T00:53:30;12.33;;;8.03;;
9767;SDS011;4923;52.520;13.494;2022-08-25T00:56:17;7.40;;;6.80;;
9767;SDS011;4923;52.520;13.494;2022-08-25T00:59:04;12.30;;;7.60;;
9767;SDS011;4923;52.520;13.494;2022-08-25T01:01:53;17.50;;;7.93;;
9767;SDS011;4923;52.520;13.494;2022-08-25T01:04:41;9.60;;;8.70;;
9767;SDS011;4923;52.520;13.494;2022-08-25T01:07:28;8.83;;;7.40;;
9767;SDS011;4923;52.520;13.494;2022-08-25T01:10:17;20.83;;;7.97;;
9767;SDS011;4923;52.520;13.494;2022-08-25T01:13:07;12.03;;;7.83;;
9767;SDS011;4923;52.520;13.494;2022-08-25T01:15:58;8.80;;;7.97;;
9767;SDS011;4923;52.520;13.494;2022-08-25T01:18:47;13.13;;;8.10;;
9767;SDS011;4923;52.520;13.494;2022-08-25T01:21:38;16.03;;;7.77;;
9767;SDS011;4923;52.520;13.494;2022-08-25T01:24:28;11.63;;;8.17;;
9767;SDS011;4923;52.520;13.494;2022-08-25T01:27:20;12.90;;;8.63;;
9767;SDS011;4923;52.520;13.494;2022-08-25T01:30:07;16.00;;;8.17;;
9767;SDS011;4923;52.520;13.494;2022-08-25T01:32:55;16.67;;;9.20;;
9767;SDS011;4923;52.520;13.494;2022-08-25T01:35:42;13.70;;;8.43;;
9767;SDS011;4923;52.520;13.494;2022-08-25T01:38:30;12.43;;;8.63;;
9767;SDS011;4923;52.520;13.494;2022-08-25T01:41:20;12.53;;;9.20;;
9767;SDS011;4923;52.520;13.494;2022-08-25T01:44:15;13.27;;;8.27;;
9767;SDS011;4923;52.520;13.494;2022-08-25T01:47:03;13.50;;;9.80;;
9767;SDS011;4923;52.520;13.494;2022-08-25T01:49:52;15.90;;;8.43;;
9767;SDS011;4923;52.520;13.494;2022-08-25T01:52:44;16.20;;;9.17;;
9767;SDS011;4923;52.520;13.494;2022-08-25T01:55:41;15.20;;;9.03;;
9767;SDS011;4923;52.520;13.494;2022-08-25T01:58:38;21.23;;;9.47;;
9767;SDS011;4923;52.520;13.494;2022-08-25T02:01:27;22.80;;;11.67;;
9767;SDS011;4923;52.520;13.494;2022-08-25T02:04:14;12.80;;;8.67;;
9767;SDS011;4923;52.520;13.494;2022-08-25T02:07:02;15.27;;;10.13;;
9767;SDS011;4923;52.520;13.494;2022-08-25T02:09:50;12.07;;;8.77;;
9767;SDS011;4923;52.520;13.494;2022-08-25T02:12:40;15.23;;;9.60;;
9767;SDS011;4923;52.520;13.494;2022-08-25T02:15:28;14.80;;;9.77;;
9767;SDS011;4923;52.520;13.494;2022-08-25T02:18:15;21.43;;;10.27;;
9767;SDS011;4923;52.520;13.494;2022-08-25T02:21:03;17.57;;;9.37;;
9767;SDS011;4923;52.520;13.494;2022-08-25T02:23:50;23.17;;;10.43;;
9767;SDS011;4923;52.520;13.494;2022-08-25T02:26:37;23.10;;;9.40;;
9767;SDS011;4923;52.520;13.494;2022-08-25T02:29:27;18.70;;;11.37;;
9767;SDS011;4923;52.520;13.494;2022-08-25T02:32:14;20.90;;;12.03;;
9767;SDS011;4923;52.520;13.494;2022-08-25T02:35:01;31.27;;;12.03;;
9767;SDS011;4923;52.520;13.494;2022-08-25T02:37:49;11.97;;;10.50;;
9767;SDS011;4923;52.520;13.494;2022-08-25T02:40:37;16.90;;;10.37;;
9767;SDS011;4923;52.520;13.494;2022-08-25T02:43:24;17.43;;;9.43;;
9767;SDS011;4923;52.520;13.494;2022-08-25T02:46:13;14.47;;;11.10;;
9767;SDS011;4923;52.520;13.494;2022-08-25T02:49:00;26.60;;;11.80;;
9767;SDS011;4923;52.520;13.494;2022-08-25T02:51:48;19.47;;;11.10;;
9767;SDS011;4923;52.520;13.494;2022-08-25T02:54:43;13.60;;;10.60;;
9767;SDS011;4923;52.520;13.494;2022-08-25T02:57:30;15.50;;;10.67;;
9767;SDS011;4923;52.520;13.494;2022-08-25T03:00:17;19.40;;;10.73;;
9767;SDS011;4923;52.520;13.494;2022-08-25T03:03:05;15.73;;;12.37;;
9767;SDS011;4923;52.520;13.494;2022-08-25T03:05:52;18.37;;;11.30;;
9767;SDS011;4923;52.520;13.494;2022-08-25T03:08:41;23.10;;;12.47;;
9767;SDS011;4923;52.520;13.494;2022-08-25T03:11:29;16.40;;;12.13;;
9767;SDS011;4923;52.520;13.494;2022-08-25T03:14:16;15.83;;;13.30;;
9767;SDS011;4923;52.520;13.494;2022-08-25T03:17:03;26.37;;;12.60;;
9767;SDS011;4923;52.520;13.494;2022-08-25T03:19:51;18.93;;;12.60;;
9767;SDS011;4923;52.520;13.494;2022-08-25T03:22:38;19.43;;;12.50;;
9767;SDS011;4923;52.520;13.494;2022-08-25T03:25:25;16.33;;;13.80;;
9767;SDS011;4923;52.520;13.494;2022-08-25T03:28:29;19.63;;;12.80;;
9767;SDS011;4923;52.520;13.494;2022-08-25T03:31:17;26.73;;;14.13;;
9767;SDS011;4923;52.520;13.494;2022-08-25T03:34:04;20.63;;;12.83;;
9767;SDS011;4923;52.520;13.494;2022-08-25T03:36:52;17.90;;;13.13;;
9767;SDS011;4923;52.520;13.494;2022-08-25T03:39:40;22.93;;;13.80;;
9767;SDS011;4923;52.520;13.494;2022-08-25T03:42:27;18.23;;;13.33;;
9767;SDS011;4923;52.520;13.494;2022-08-25T03:45:14;18.77;;;13.37;;
9767;SDS011;4923;52.520;13.494;2022-08-25T03:48:02;19.30;;;12.80;;
9767;SDS011;4923;52.520;13.494;2022-08-25T03:50:50;20.13;;;13.63;;
9767;SDS011;4923;52.520;13.494;2022-08-25T03:53:40;24.57;;;14.37;;
9767;SDS011;4923;52.520;13.494;2022-08-25T03:56:27;20.87;;;14.63;;
9767;SDS011;4923;52.520;13.494;2022-08-25T03:59:14;24.70;;;14.23;;
9767;SDS011;4923;52.520;13.494;2022-08-25T04:02:01;16.80;;;14.90;;
9767;SDS011;4923;52.520;13.494;2022-08-25T04:04:48;33.03;;;15.33;;
9767;SDS011;4923;52.520;13.494;2022-08-25T04:07:35;34.70;;;15.73;;
9767;SDS011;4923;52.520;13.494;2022-08-25T04:10:24;21.73;;;16.87;;
9767;SDS011;4923;52.520;13.494;2022-08-25T04:13:11;24.23;;;15.90;;
9767;SDS011;4923;52.520;13.494;2022-08-25T04:15:58;25.90;;;15.80;;
9767;SDS011;4923;52.520;13.494;2022-08-25T04:18:45;33.03;;;19.07;;
9767;SDS011;4923;52.520;13.494;2022-08-25T04:21:33;31.23;;;19.70;;
9767;SDS011;4923;52.520;13.494;2022-08-25T04:24:20;49.90;;;21.10;;
9767;SDS011;4923;52.520;13.494;2022-08-25T04:27:09;39.43;;;22.23;;
9767;SDS011;4923;52.520;13.494;2022-08-25T04:29:56;41.43;;;24.03;;
9767;SDS011;4923;52.520;13.494;2022-08-25T04:32:43;60.47;;;23.83;;
9767;SDS011;4923;52.520;13.494;2022-08-25T04:35:30;56.20;;;23.80;;
9767;SDS011;4923;52.520;13.494;2022-08-25T04:38:17;34.37;;;21.47;;
9767;SDS011;4923;52.520;13.494;2022-08-25T04:41:04;40.57;;;21.40;;
9767;SDS011;4923;52.520;13.494;2022-08-25T04:43:54;46.10;;;23.63;;
9767;SDS011;4923;52.520;13.494;2022-08-25T04:46:42;43.00;;;21.50;;
9767;SDS011;4923;52.520;13.494;2022-08-25T04:49:29;46.43;;;24.03;;
9767;SDS011;4923;52.520;13.494;2022-08-25T04:52:16;33.33;;;20.20;;
9767;SDS011;4923;52.520;13.494;2022-08-25T04:55:05;34.80;;;20.90;;
9767;SDS011;4923;52.520;13.494;2022-08-25T04:57:52;39.20;;;20.77;;
9767;SDS011;4923;52.520;13.494;2022-08-25T05:00:41;34.93;;;19.30;;
9767;SDS011;4923;52.520;13.494;2022-08-25T05:03:28;32.40;;;17.70;;
9767;SDS011;4923;52.520;13.494;2022-08-25T05:06:15;25.47;;;17.43;;
9767;SDS011;4923;52.520;13.494;2022-08-25T05:09:04;29.47;;;19.43;;
9767;SDS011;4923;52.520;13.494;2022-08-25T05:11:52;28.13;;;16.57;;
9767;SDS011;4923;52.520;13.494;2022-08-25T05:14:39;30.20;;;17.77;;
9767;SDS011;4923;52.520;13.494;2022-08-25T05:17:27;29.03;;;16.80;;
9767;SDS011;4923;52.520;13.494;2022-08-25T05:20:14;41.67;;;17.30;;
9767;SDS011;4923;52.520;13.494;2022-08-25T05:23:02;24.47;;;17.30;;
9767;SDS011;4923;52.520;13.494;2022-08-25T05:25:50;30.97;;;16.37;;
9767;SDS011;4923;52.520;13.494;2022-08-25T05:28:38;35.90;;;18.50;;
9767;SDS011;4923;52.520;13.494;2022-08-25T05:31:27;27.83;;;16.10;;
9767;SDS011;4923;52.520;13.494;2022-08-25T05:34:15;22.83;;;15.67;;
9767;SDS011;4923;52.520;13.494;2022-08-25T05:37:03;24.00;;;15.50;;
9767;SDS011;4923;52.520;13.494;2022-08-25T05:39:50;21.20;;;13.10;;
9767;SDS011;4923;52.520;13.494;2022-08-25T05:42:37;20.17;;;14.47;;
9767;SDS011;4923;52.520;13.494;2022-08-25T05:45:24;24.70;;;13.33;;
9767;SDS011;4923;52.520;13.494;2022-08-25T05:48:11;21.27;;;14.30;;
9767;SDS011;4923;52.520;13.494;2022-08-25T05:51:00;22.53;;;14.13;;
9767;SDS011;4923;52.520;13.494;2022-08-25T05:53:50;24.13;;;15.03;;
9767;SDS011;4923;52.520;13.494;2022-08-25T05:56:37;28.80;;;14.40;;
9767;SDS011;4923;52.520;13.494;2022-08-25T05:59:24;30.50;;;17.90;;
9767;SDS011;4923;52.520;13.494;2022-08-25T06:02:11;29.40;;;15.27;;
9767;SDS011;4923;52.520;13.494;2022-08-25T06:05:16;28.83;;;17.60;;
9767;SDS011;4923;52.520;13.494;2022-08-25T06:08:06;27.33;;;16.50;;
9767;SDS011;4923;52.520;13.494;2022-08-25T06:10:53;25.87;;;16.07;;
9767;SDS011;4923;52.520;13.494;2022-08-25T06:13:40;34.83;;;16.00;;
9767;SDS011;4923;52.520;13.494;2022-08-25T06:16:27;25.10;;;15.80;;
9767;SDS011;4923;52.520;13.494;2022-08-25T06:19:14;28.77;;;18.10;;
9767;SDS011;4923;52.520;13.494;2022-08-25T06:22:01;25.47;;;15.97;;
9767;SDS011;4923;52.520;13.494;2022-08-25T06:24:50;29.10;;;15.93;;
9767;SDS011;4923;52.520;13.494;2022-08-25T06:27:37;20.03;;;14.77;;
9767;SDS011;4923;52.520;13.494;2022-08-25T06:30:25;25.03;;;15.83;;
9767;SDS011;4923;52.520;13.494;2022-08-25T06:33:12;23.60;;;16.70;;
9767;SDS011;4923;52.520;13.494;2022-08-25T06:35:59;18.30;;;13.43;;
9767;SDS011;4923;52.520;13.494;2022-08-25T06:38:46;22.10;;;15.50;;
9767;SDS011;4923;52.520;13.494;2022-08-25T06:41:35;22.10;;;14.10;;
9767;SDS011;4923;52.520;13.494;2022-08-25T06:44:22;24.27;;;16.37;;
9767;SDS011;4923;52.520;13.494;2022-08-25T06:47:10;27.30;;;14.80;;
9767;SDS011;4923;52.520;13.494;2022-08-25T06:49:59;21.47;;;15.10;;
9767;SDS011;4923;52.520;13.494;2022-08-25T06:52:48;27.50;;;15.80;;
9767;SDS011;4923;52.520;13.494;2022-08-25T06:55:36;24.27;;;14.53;;
9767;SDS011;4923;52.520;13.494;2022-08-25T06:58:24;22.97;;;14.90;;
9767;SDS011;4923;52.520;13.494;2022-08-25T07:01:12;25.57;;;15.13;;
9767;SDS011;4923;52.520;13.494;2022-08-25T07:04:01;34.23;;;15.70;;
9767;SDS011;4923;52.520;13.494;2022-08-25T07:06:50;32.27;;;16.13;;
9767;SDS011;4923;52.520;13.494;2022-08-25T07:09:37;20.97;;;14.50;;
9767;SDS011;4923;52.520;13.494;2022-08-25T07:12:24;22.80;;;14.40;;
9767;SDS011;4923;52.520;13.494;2022-08-25T07:15:13;27.87;;;16.87;;
9767;SDS011;4923;52.520;13.494;2022-08-25T07:18:00;28.70;;;15.00;;
9767;SDS011;4923;52.520;13.494;2022-08-25T07:20:47;32.73;;;16.10;;
9767;SDS011;4923;52.520;13.494;2022-08-25T07:23:36;26.57;;;15.33;;
9767;SDS011;4923;52.520;13.494;2022-08-25T07:26:24;25.97;;;15.83;;
9767;SDS011;4923;52.520;13.494;2022-08-25T07:29:14;43.43;;;17.10;;
9767;SDS011;4923;52.520;13.494;2022-08-25T07:32:05;33.63;;;18.50;;
9767;SDS011;4923;52.520;13.494;2022-08-25T07:34:52;37.23;;;18.80;;
9767;SDS011;4923;52.520;13.494;2022-08-25T07:37:56;45.37;;;19.10;;
9767;SDS011;4923;52.520;13.494;2022-08-25T07:40:44;33.00;;;16.50;;
9767;SDS011;4923;52.520;13.494;2022-08-25T07:43:38;36.77;;;17.07;;
9767;SDS011;4923;52.520;13.494;2022-08-25T07:46:26;41.00;;;18.20;;
9767;SDS011;4923;52.520;13.494;2022-08-25T07:49:15;38.33;;;17.70;;
9767;SDS011;4923;52.520;13.494;2022-08-25T07:52:02;31.90;;;17.97;;
9767;SDS011;4923;52.520;13.494;2022-08-25T07:54:50;46.70;;;17.67;;
9767;SDS011;4923;52.520;13.494;2022-08-25T07:57:38;30.20;;;16.53;;
9767;SDS011;4923;52.520;13.494;2022-08-25T08:00:25;34.50;;;16.83;;
9767;SDS011;4923;52.520;13.494;2022-08-25T08:03:14;25.30;;;15.93;;
9767;SDS011;4923;52.520;13.494;2022-08-25T08:06:05;31.20;;;16.80;;
9767;SDS011;4923;52.520;13.494;2022-08-25T08:08:54;27.87;;;15.70;;
9767;SDS011;4923;52.520;13.494;2022-08-25T08:11:41;26.03;;;15.03;;
9767;SDS011;4923;52.520;13.494;2022-08-25T08:14:29;19.07;;;14.00;;
9767;SDS011;4923;52.520;13.494;2022-08-25T08:17:16;29.70;;;14.93;;
9767;SDS011;4923;52.520;13.494;2022-08-25T08:20:04;20.47;;;14.00;;
9767;SDS011;4923;52.520;13.494;2022-08-25T08:22:54;24.30;;;13.93;;
9767;SDS011;4923;52.520;13.494;2022-08-25T08:25:41;21.73;;;13.93;;
9767;SDS011;4923;52.520;13.494;2022-08-25T08:28:28;25.73;;;12.80;;
9767;SDS011;4923;52.520;13.494;2022-08-25T08:31:15;16.83;;;11.50;;
9767;SDS011;4923;52.520;13.494;2022-08-25T08:34:03;17.43;;;12.97;;
9767;SDS011;4923;52.520;13.494;2022-08-25T08:36:50;15.10;;;10.20;;
9767;SDS011;4923;52.520;13.494;2022-08-25T08:39:39;12.67;;;9.67;;
9767;SDS011;4923;52.520;13.494;2022-08-25T08:42:37;13.40;;;10.50;;
9767;SDS011;4923;52.520;13.494;2022-08-25T08:45:33;12.93;;;10.30;;
9767;SDS011;4923;52.520;13.494;2022-08-25T08:48:27;13.83;;;9.13;;
9767;SDS011;4923;52.520;13.494;2022-08-25T08:51:32;10.63;;;7.90;;
9767;SDS011;4923;52.520;13.494;2022-08-25T08:54:29;15.80;;;10.93;;
9767;SDS011;4923;52.520;13.494;2022-08-25T08:57:21;17.43;;;9.10;;
9767;SDS011;4923;52.520;13.494;2022-08-25T09:00:12;12.83;;;8.30;;
9767;SDS011;4923;52.520;13.494;2022-08-25T09:03:03;12.53;;;10.00;;
9767;SDS011;4923;52.520;13.494;2022-08-25T09:05:53;20.10;;;8.73;;
9767;SDS011;4923;52.520;13.494;2022-08-25T09:08:44;16.17;;;9.33;;
9767;SDS011;4923;52.520;13.494;2022-08-25T09:11:34;13.23;;;8.77;;
9767;SDS011;4923;52.520;13.494;2022-08-25T09:14:38;9.73;;;7.03;;
9767;SDS011;4923;52.520;13.494;2022-08-25T09:17:41;19.93;;;7.93;;
9767;SDS011;4923;52.520;13.494;2022-08-25T09:20:40;12.43;;;7.90;;
9767;SDS011;4923;52.520;13.494;2022-08-25T09:23:40;10.07;;;8.00;;
9767;SDS011;4923;52.520;13.494;2022-08-25T09:26:38;11.30;;;6.90;;
9767;SDS011;4923;52.520;13.494;2022-08-25T09:29:33;12.30;;;8.23;;
9767;SDS011;4923;52.520;13.494;2022-08-25T09:32:33;10.80;;;8.07;;
9767;SDS011;4923;52.520;13.494;2022-08-25T09:35:24;8.17;;;7.47;;
9767;SDS011;4923;52.520;13.494;2022-08-25T09:38:13;7.83;;;7.10;;
9767;SDS011;4923;52.520;13.494;2022-08-25T09:41:00;8.90;;;6.50;;
9767;SDS011;4923;52.520;13.494;2022-08-25T09:43:51;15.83;;;8.27;;
9767;SDS011;4923;52.520;13.494;2022-08-25T09:46:40;10.47;;;7.17;;
9767;SDS011;4923;52.520;13.494;2022-08-25T09:49:41;14.03;;;7.20;;
9767;SDS011;4923;52.520;13.494;2022-08-25T09:52:35;9.67;;;6.90;;
9767;SDS011;4923;52.520;13.494;2022-08-25T09:55:25;12.57;;;6.77;;
9767;SDS011;4923;52.520;13.494;2022-08-25T09:58:17;10.00;;;6.73;;
9767;SDS011;4923;52.520;13.494;2022-08-25T10:01:10;6.47;;;6.00;;
9767;SDS011;4923;52.520;13.494;2022-08-25T10:04:02;7.53;;;6.80;;
9767;SDS011;4923;52.520;13.494;2022-08-25T10:06:51;11.30;;;6.00;;
9767;SDS011;4923;52.520;13.494;2022-08-25T10:09:38;21.00;;;7.97;;
9767;SDS011;4923;52.520;13.494;2022-08-25T10:12:28;9.87;;;6.40;;
9767;SDS011;4923;52.520;13.494;2022-08-25T10:15:17;10.53;;;5.93;;
9767;SDS011;4923;52.520;13.494;2022-08-25T10:18:15;6.80;;;5.63;;
9767;SDS011;4923;52.520;13.494;2022-08-25T10:21:09;14.20;;;6.20;;
9767;SDS011;4923;52.520;13.494;2022-08-25T10:23:58;12.03;;;5.37;;
9767;SDS011;4923;52.520;13.494;2022-08-25T10:26:50;13.23;;;5.87;;
9767;SDS011;4923;52.520;13.494;2022-08-25T10:29:47;13.50;;;5.50;;
9767;SDS011;4923;52.520;13.494;2022-08-25T10:32:59;9.97;;;5.00;;
9767;SDS011;4923;52.520;13.494;2022-08-25T10:35:56;10.20;;;5.27;;
9767;SDS011;4923;52.520;13.494;2022-08-25T10:38:51;8.57;;;5.10;;
9767;SDS011;4923;52.520;13.494;2022-08-25T10:41:45;13.43;;;4.60;;
9767;SDS011;4923;52.520;13.494;2022-08-25T10:44:41;18.33;;;5.70;;
9767;SDS011;4923;52.520;13.494;2022-08-25T10:48:00;13.57;;;5.17;;
9767;SDS011;4923;52.520;13.494;2022-08-25T10:51:14;12.77;;;6.07;;
9767;SDS011;4923;52.520;13.494;2022-08-25T10:54:28;11.67;;;5.63;;
9767;SDS011;4923;52.520;13.494;2022-08-25T10:57:27;11.00;;;5.40;;
9767;SDS011;4923;52.520;13.494;2022-08-25T11:00:20;14.70;;;4.90;;
9767;SDS011;4923;52.520;13.494;2022-08-25T11:03:12;14.90;;;5.07;;
9767;SDS011;4923;52.520;13.494;2022-08-25T11:06:06;6.23;;;4.90;;
9767;SDS011;4923;52.520;13.494;2022-08-25T11:08:58;7.17;;;4.27;;
9767;SDS011;4923;52.520;13.494;2022-08-25T11:11:51;6.17;;;4.23;;
9767;SDS011;4923;52.520;13.494;2022-08-25T11:14:45;14.93;;;5.53;;
9767;SDS011;4923;52.520;13.494;2022-08-25T11:17:39;18.20;;;5.10;;
9767;SDS011;4923;52.520;13.494;2022-08-25T11:20:35;11.33;;;4.53;;
9767;SDS011;4923;52.520;13.494;2022-08-25T11:23:30;18.70;;;5.30;;
9767;SDS011;4923;52.520;13.494;2022-08-25T11:26:23;12.13;;;4.97;;
9767;SDS011;4923;52.520;13.494;2022-08-25T11:29:15;20.97;;;4.40;;
9767;SDS011;4923;52.520;13.494;2022-08-25T11:32:05;14.37;;;4.50;;
9767;SDS011;4923;52.520;13.494;2022-08-25T11:34:52;13.23;;;4.77;;
9767;SDS011;4923;52.520;13.494;2022-08-25T11:37:41;8.77;;;4.77;;
9767;SDS011;4923;52.520;13.494;2022-08-25T11:40:40;12.90;;;4.73;;
9767;SDS011;4923;52.520;13.494;2022-08-25T11:43:43;7.53;;;4.00;;
9767;SDS011;4923;52.520;13.494;2022-08-25T11:46:48;9.80;;;3.13;;
9767;SDS011;4923;52.520;13.494;2022-08-25T11:49:49;8.70;;;4.63;;
9767;SDS011;4923;52.520;13.494;2022-08-25T11:52:42;8.33;;;4.40;;
9767;SDS011;4923;52.520;13.494;2022-08-25T11:55:44;16.10;;;4.20;;
9767;SDS011;4923;52.520;13.494;2022-08-25T11:58:44;14.43;;;4.40;;
9767;SDS011;4923;52.520;13.494;2022-08-25T12:08:47;6.93;;;4.23;;
9767;SDS011;4923;52.520;13.494;2022-08-25T12:11:47;17.80;;;5.00;;
9767;SDS011;4923;52.520;13.494;2022-08-25T12:14:43;30.80;;;5.23;;
9767;SDS011;4923;52.520;13.494;2022-08-25T12:17:37;18.03;;;4.03;;
9767;SDS011;4923;52.520;13.494;2022-08-25T12:27:07;11.43;;;4.17;;
9767;SDS011;4923;52.520;13.494;2022-08-25T12:29:57;24.87;;;4.90;;
9767;SDS011;4923;52.520;13.494;2022-08-25T12:32:56;18.90;;;4.40;;
9767;SDS011;4923;52.520;13.494;2022-08-25T12:35:54;10.33;;;4.63;;
9767;SDS011;4923;52.520;13.494;2022-08-25T12:38:43;16.47;;;4.67;;
9767;SDS011;4923;52.520;13.494;2022-08-25T12:41:33;14.70;;;4.23;;
9767;SDS011;4923;52.520;13.494;2022-08-25T12:44:32;13.97;;;5.10;;
9767;SDS011;4923;52.520;13.494;2022-08-25T12:47:25;9.57;;;4.40;;
9767;SDS011;4923;52.520;13.494;2022-08-25T12:50:37;9.17;;;4.37;;
9767;SDS011;4923;52.520;13.494;2022-08-25T12:53:27;10.00;;;3.70;;
9767;SDS011;4923;52.520;13.494;2022-08-25T12:56:22;4.50;;;4.00;;
9767;SDS011;4923;52.520;13.494;2022-08-25T12:59:14;8.33;;;3.83;;
9767;SDS011;4923;52.520;13.494;2022-08-25T13:02:05;5.67;;;3.40;;
9767;SDS011;4923;52.520;13.494;2022-08-25T13:05:19;7.80;;;4.07;;
9767;SDS011;4923;52.520;13.494;2022-08-25T13:08:34;9.53;;;4.33;;
9767;SDS011;4923;52.520;13.494;2022-08-25T13:11:43;18.80;;;4.47;;
9767;SDS011;4923;52.520;13.494;2022-08-25T13:14:35;9.90;;;3.83;;
9767;SDS011;4923;52.520;13.494;2022-08-25T13:17:25;13.73;;;3.83;;
9767;SDS011;4923;52.520;13.494;2022-08-25T13:20:14;13.83;;;4.90;;
9767;SDS011;4923;52.520;13.494;2022-08-25T13:23:03;10.13;;;4.40;;
9767;SDS011;4923;52.520;13.494;2022-08-25T13:25:52;9.27;;;4.03;;
9767;SDS011;4923;52.520;13.494;2022-08-25T13:28:41;8.20;;;4.10;;
9767;SDS011;4923;52.520;13.494;2022-08-25T13:31:29;7.33;;;4.10;;
9767;SDS011;4923;52.520;13.494;2022-08-25T13:34:17;8.03;;;4.27;;
9767;SDS011;4923;52.520;13.494;2022-08-25T13:37:06;11.00;;;3.70;;
9767;SDS011;4923;52.520;13.494;2022-08-25T13:40:14;27.77;;;4.20;;
9767;SDS011;4923;52.520;13.494;2022-08-25T13:43:11;21.70;;;4.93;;
9767;SDS011;4923;52.520;13.494;2022-08-25T13:45:59;6.60;;;4.77;;
9767;SDS011;4923;52.520;13.494;2022-08-25T13:48:46;17.20;;;4.73;;
9767;SDS011;4923;52.520;13.494;2022-08-25T13:51:33;11.13;;;3.50;;
9767;SDS011;4923;52.520;13.494;2022-08-25T13:54:23;15.27;;;4.33;;
9767;SDS011;4923;52.520;13.494;2022-08-25T13:57:14;11.30;;;4.27;;
9767;SDS011;4923;52.520;13.494;2022-08-25T14:00:07;10.97;;;3.93;;
9767;SDS011;4923;52.520;13.494;2022-08-25T14:02:56;5.67;;;3.73;;
9767;SDS011;4923;52.520;13.494;2022-08-25T14:05:44;12.20;;;4.67;;
9767;SDS011;4923;52.520;13.494;2022-08-25T14:08:32;16.67;;;3.50;;
9767;SDS011;4923;52.520;13.494;2022-08-25T14:11:26;11.60;;;3.63;;
9767;SDS011;4923;52.520;13.494;2022-08-25T14:14:28;6.00;;;3.30;;
9767;SDS011;4923;52.520;13.494;2022-08-25T14:17:17;12.00;;;3.67;;
9767;SDS011;4923;52.520;13.494;2022-08-25T14:20:05;9.03;;;3.23;;
9767;SDS011;4923;52.520;13.494;2022-08-25T14:23:02;21.03;;;4.40;;
9767;SDS011;4923;52.520;13.494;2022-08-25T14:25:52;17.53;;;5.20;;
9767;SDS011;4923;52.520;13.494;2022-08-25T14:28:41;9.70;;;3.50;;
9767;SDS011;4923;52.520;13.494;2022-08-25T14:31:28;8.20;;;4.03;;
9767;SDS011;4923;52.520;13.494;2022-08-25T14:34:18;7.03;;;3.83;;
9767;SDS011;4923;52.520;13.494;2022-08-25T14:37:09;14.93;;;5.10;;
9767;SDS011;4923;52.520;13.494;2022-08-25T14:39:59;11.70;;;3.77;;
9767;SDS011;4923;52.520;13.494;2022-08-25T14:42:46;12.90;;;3.93;;
9767;SDS011;4923;52.520;13.494;2022-08-25T14:45:33;9.10;;;3.70;;
9767;SDS011;4923;52.520;13.494;2022-08-25T14:48:23;18.17;;;4.70;;
9767;SDS011;4923;52.520;13.494;2022-08-25T14:51:13;5.37;;;3.57;;
9767;SDS011;4923;52.520;13.494;2022-08-25T14:54:03;16.30;;;4.10;;
9767;SDS011;4923;52.520;13.494;2022-08-25T14:56:51;28.93;;;5.23;;
9767;SDS011;4923;52.520;13.494;2022-08-25T14:59:38;9.53;;;3.70;;
9767;SDS011;4923;52.520;13.494;2022-08-25T15:02:25;5.63;;;3.70;;
9767;SDS011;4923;52.520;13.494;2022-08-25T15:05:13;10.13;;;4.43;;
9767;SDS011;4923;52.520;13.494;2022-08-25T15:08:03;12.40;;;3.90;;
9767;SDS011;4923;52.520;13.494;2022-08-25T15:11:08;13.97;;;3.73;;
9767;SDS011;4923;52.520;13.494;2022-08-25T15:13:55;11.93;;;4.00;;
9767;SDS011;4923;52.520;13.494;2022-08-25T15:16:43;6.00;;;3.00;;
9767;SDS011;4923;52.520;13.494;2022-08-25T15:19:31;18.97;;;4.10;;
9767;SDS011;4923;52.520;13.494;2022-08-25T15:22:19;18.60;;;4.27;;
9767;SDS011;4923;52.520;13.494;2022-08-25T15:25:07;10.80;;;3.67;;
9767;SDS011;4923;52.520;13.494;2022-08-25T15:27:54;14.10;;;3.80;;
9767;SDS011;4923;52.520;13.494;2022-08-25T15:30:42;21.40;;;3.97;;
9767;SDS011;4923;52.520;13.494;2022-08-25T15:33:28;15.00;;;4.00;;
9767;SDS011;4923;52.520;13.494;2022-08-25T15:36:16;12.73;;;4.23;;
9767;SDS011;4923;52.520;13.494;2022-08-25T15:39:06;18.40;;;3.63;;
9767;SDS011;4923;52.520;13.494;2022-08-25T15:41:55;17.03;;;4.30;;
9767;SDS011;4923;52.520;13.494;2022-08-25T15:44:42;7.60;;;3.70;;
9767;SDS011;4923;52.520;13.494;2022-08-25T15:47:29;18.37;;;4.20;;
9767;SDS011;4923;52.520;13.494;2022-08-25T15:50:21;9.97;;;4.90;;
9767;SDS011;4923;52.520;13.494;2022-08-25T15:53:11;13.50;;;3.63;;
9767;SDS011;4923;52.520;13.494;2022-08-25T15:55:57;12.00;;;3.47;;
9767;SDS011;4923;52.520;13.494;2022-08-25T15:58:46;23.10;;;4.20;;
9767;SDS011;4923;52.520;13.494;2022-08-25T16:01:33;18.17;;;3.70;;
9767;SDS011;4923;52.520;13.494;2022-08-25T16:04:20;13.27;;;4.20;;
9767;SDS011;4923;52.520;13.494;2022-08-25T16:07:07;13.50;;;3.80;;
9767;SDS011;4923;52.520;13.494;2022-08-25T16:09:55;12.67;;;4.07;;
9767;SDS011;4923;52.520;13.494;2022-08-25T16:12:43;25.10;;;3.83;;
9767;SDS011;4923;52.520;13.494;2022-08-25T16:15:31;13.93;;;3.73;;
9767;SDS011;4923;52.520;13.494;2022-08-25T16:18:20;10.70;;;3.23;;
9767;SDS011;4923;52.520;13.494;2022-08-25T16:21:08;22.30;;;5.10;;
9767;SDS011;4923;52.520;13.494;2022-08-25T16:23:57;22.77;;;4.60;;
9767;SDS011;4923;52.520;13.494;2022-08-25T16:26:45;10.10;;;4.03;;
9767;SDS011;4923;52.520;13.494;2022-08-25T16:29:33;15.77;;;4.30;;
9767;SDS011;4923;52.520;13.494;2022-08-25T16:32:22;20.40;;;5.70;;
9767;SDS011;4923;52.520;13.494;2022-08-25T16:35:10;21.50;;;4.93;;
9767;SDS011;4923;52.520;13.494;2022-08-25T16:37:57;22.67;;;4.30;;
9767;SDS011;4923;52.520;13.494;2022-08-25T16:40:44;17.37;;;3.60;;
9767;SDS011;4923;52.520;13.494;2022-08-25T16:43:31;23.27;;;5.17;;
9767;SDS011;4923;52.520;13.494;2022-08-25T16:46:18;16.83;;;4.53;;
9767;SDS011;4923;52.520;13.494;2022-08-25T16:49:08;17.00;;;4.30;;
9767;SDS011;4923;52.520;13.494;2022-08-25T16:51:55;26.17;;;4.60;;
9767;SDS011;4923;52.520;13.494;2022-08-25T16:54:42;30.83;;;4.67;;
9767;SDS011;4923;52.520;13.494;2022-08-25T16:57:48;10.90;;;3.87;;
9767;SDS011;4923;52.520;13.494;2022-08-25T17:00:38;23.43;;;4.60;;
9767;SDS011;4923;52.520;13.494;2022-08-25T17:03:25;35.03;;;4.53;;
9767;SDS011;4923;52.520;13.494;2022-08-25T17:06:13;17.37;;;4.37;;
9767;SDS011;4923;52.520;13.494;2022-08-25T17:09:00;28.50;;;5.60;;
9767;SDS011;4923;52.520;13.494;2022-08-25T17:11:47;20.00;;;4.33;;
9767;SDS011;4923;52.520;13.494;2022-08-25T17:14:36;17.60;;;4.13;;
9767;SDS011;4923;52.520;13.494;2022-08-25T17:17:23;25.43;;;5.23;;